Time;durP1;ratioP1;P1;durP2;ratioP2;P2;SDS_P1;SDS_P2;PMS_P1;PMS_P2;Temp;Humidity;BMP_temperature;BMP_pressure;BME280_temperature;BME280_humidity;BME280_pressure;Samples;Min_cycle;Max_cycle;Signal;HPM_P1;HPM_P2
2021/06/26 00:01:04;;;;;;;18.90;6.50;;;;;;;23.50;63.12;100136.16;126290;1099;104188;-77
2021/06/26 00:03:35;;;;;;;19.77;5.83;;;;;;;23.43;63.58;100130.97;126312;1099;105517;-78
2021/06/26 00:06:07;;;;;;;18.75;5.50;;;;;;;23.41;63.47;100138.17;126382;1099;104283;-76
2021/06/26 00:08:37;;;;;;;19.20;5.90;;;;;;;23.40;63.81;100134.59;126323;1099;104376;-76
2021/06/26 00:11:08;;;;;;;23.77;6.37;;;;;;;23.38;63.70;100130.21;126302;1099;104161;-77
2021/06/26 00:13:39;;;;;;;20.53;5.90;;;;;;;23.36;63.89;100129.34;126306;1099;104147;-77
2021/06/26 00:16:13;;;;;;;18.75;6.40;;;;;;;23.35;64.00;100125.80;126359;1099;104579;-76
2021/06/26 00:18:43;;;;;;;16.70;5.83;;;;;;;23.35;63.89;100130.28;126331;1099;104140;-77
2021/06/26 00:21:14;;;;;;;23.20;6.30;;;;;;;23.32;64.10;100132.09;126326;1099;104159;-77
2021/06/26 00:24:01;;;;;;;20.07;5.90;;;;;;;23.29;64.27;100121.45;126272;1099;104653;-78
2021/06/26 00:26:44;;;;;;;17.80;5.87;;;;;;;23.24;63.91;100123.36;126289;1099;104300;-76
2021/06/26 00:29:14;;;;;;;16.60;5.93;;;;;;;23.22;64.57;100117.17;126350;1099;104236;-77
2021/06/26 00:31:45;;;;;;;15.03;5.57;;;;;;;23.18;64.24;100114.59;126251;1099;104311;-77
2021/06/26 00:34:16;;;;;;;18.53;5.90;;;;;;;23.16;64.88;100114.63;126270;1099;105179;-77
2021/06/26 00:36:47;;;;;;;17.70;5.40;;;;;;;23.15;64.34;100121.80;126313;1099;104206;-76
2021/06/26 00:39:17;;;;;;;19.57;5.40;;;;;;;23.14;64.75;100120.02;126334;1099;104640;-77
2021/06/26 00:41:48;;;;;;;19.33;5.60;;;;;;;23.13;64.91;100120.05;126322;1099;104149;-76
2021/06/26 00:44:19;;;;;;;21.37;6.30;;;;;;;23.10;64.47;100125.47;126292;1099;104229;-77
2021/06/26 00:46:50;;;;;;;18.23;5.93;;;;;;;23.05;64.75;100116.64;126236;1099;104309;-78
2021/06/26 00:49:21;;;;;;;18.70;6.33;;;;;;;22.99;64.82;100117.64;126355;1099;104246;-77
2021/06/26 00:52:04;;;;;;;15.73;5.40;;;;;;;22.98;64.75;100116.77;126324;1099;104150;-77
2021/06/26 00:54:35;;;;;;;17.90;5.93;;;;;;;22.95;65.41;100111.48;126305;1099;104140;-77
2021/06/26 00:57:07;;;;;;;19.17;6.43;;;;;;;22.95;65.33;100100.78;126364;1099;104256;-77
2021/06/26 00:59:37;;;;;;;23.67;6.03;;;;;;;22.95;65.22;100100.78;126324;1098;104149;-77
2021/06/26 01:02:11;;;;;;;16.97;6.03;;;;;;;22.93;65.38;100093.69;126379;1099;104201;-77
2021/06/26 01:04:40;;;;;;;;;;;;;;;22.93;65.78;100091.89;126353;1099;104146;-77
2021/06/26 01:07:19;;;;;;;20.40;5.70;;;;;;;22.89;65.26;100083.96;126347;1099;104165;-77
2021/06/26 01:09:50;;;;;;;19.50;6.07;;;;;;;22.89;65.67;100079.52;126350;1099;104146;-77
2021/06/26 01:12:21;;;;;;;11.73;4.60;;;;;;;22.90;65.44;100083.93;126280;1099;104261;-76
2021/06/26 01:14:53;;;;;;;17.80;5.53;;;;;;;22.87;65.76;100097.38;126278;1099;104137;-76
2021/06/26 01:17:23;;;;;;;18.70;5.80;;;;;;;22.86;65.81;100098.30;126351;1099;104143;-77
2021/06/26 01:19:54;;;;;;;17.40;6.43;;;;;;;22.80;65.51;100095.77;126344;1099;104239;-75
2021/06/26 01:22:25;;;;;;;19.33;5.97;;;;;;;22.73;66.12;100094.12;126347;1099;104137;-78
2021/06/26 01:24:56;;;;;;;23.07;6.23;;;;;;;22.68;65.95;100096.88;126240;1099;104364;-75
2021/06/26 01:27:34;;;;;;;23.63;6.17;;;;;;;22.66;65.48;100103.16;126321;1099;104149;-76
2021/06/26 01:30:08;;;;;;;16.23;5.20;;;;;;;22.63;66.41;100105.94;126299;1099;104198;-77
2021/06/26 01:33:31;;;;;;;21.45;5.35;;;;;;;22.62;66.35;100102.36;126339;1098;104133;-77
2021/06/26 01:36:06;;;;;;;20.33;5.80;;;;;;;22.60;66.31;100106.86;126317;1099;104255;-77
2021/06/26 01:38:39;;;;;;;16.20;6.30;;;;;;;22.57;66.33;100099.77;126285;1099;104151;-76
2021/06/26 01:41:13;;;;;;;15.10;5.08;;;;;;;22.55;66.28;100101.61;126345;1099;104149;-77
2021/06/26 01:43:49;;;;;;;15.50;4.70;;;;;;;22.50;65.98;100100.83;126339;1099;104150;-76
2021/06/26 01:46:21;;;;;;;20.20;5.23;;;;;;;22.46;66.22;100107.13;126311;1099;104143;-77
2021/06/26 01:48:52;;;;;;;20.30;5.77;;;;;;;22.42;66.62;100105.42;126324;1099;104313;-77
2021/06/26 01:51:22;;;;;;;17.57;5.00;;;;;;;22.35;66.60;100107.34;125403;1099;104206;-77
2021/06/26 01:53:53;;;;;;;20.50;5.60;;;;;;;22.28;66.69;100108.32;126342;1099;104146;-76
2021/06/26 01:56:24;;;;;;;17.97;5.30;;;;;;;22.24;67.16;100103.97;126271;1099;104152;-76
2021/06/26 01:58:55;;;;;;;16.03;4.70;;;;;;;22.20;66.72;100113.80;126387;1099;104216;-77
2021/06/26 02:01:25;;;;;;;12.43;5.27;;;;;;;22.15;67.17;100121.03;126301;1099;104191;-76
2021/06/26 02:03:56;;;;;;;13.00;5.10;;;;;;;22.10;67.36;100127.39;126323;1099;104232;-76
2021/06/26 02:06:27;;;;;;;18.07;5.27;;;;;;;22.07;67.64;100125.64;126285;1099;104226;-76
2021/06/26 02:08:58;;;;;;;16.73;4.80;;;;;;;22.08;67.41;100122.08;126275;1098;104297;-77
2021/06/26 02:11:31;;;;;;;16.77;5.40;;;;;;;22.08;67.94;100120.27;126334;1099;104242;-77
2021/06/26 02:14:02;;;;;;;18.30;5.10;;;;;;;22.11;67.35;100129.13;126390;1099;104238;-78
2021/06/26 02:16:33;;;;;;;20.43;4.97;;;;;;;22.07;67.79;100125.64;126268;1099;104150;-76
2021/06/26 02:19:04;;;;;;;15.97;4.90;;;;;;;22.05;68.07;100130.14;126304;1098;104140;-76
2021/06/26 02:21:34;;;;;;;18.70;5.73;;;;;;;22.04;67.47;100136.38;126363;1099;104142;-77
2021/06/26 02:24:06;;;;;;;18.37;5.70;;;;;;;22.01;67.57;100136.44;126363;1099;104258;-76
2021/06/26 02:26:37;;;;;;;16.03;5.60;;;;;;;21.99;67.31;100135.59;126291;1097;104136;-76
2021/06/26 02:29:08;;;;;;;14.47;5.17;;;;;;;21.98;68.10;100137.36;126302;1099;104280;-77
2021/06/26 02:31:39;;;;;;;16.33;4.63;;;;;;;21.94;67.54;100132.09;126357;1099;104245;-77
2021/06/26 02:34:13;;;;;;;14.43;4.70;;;;;;;21.96;67.41;100140.98;126360;1098;104239;-78
2021/06/26 02:36:44;;;;;;;15.07;4.90;;;;;;;22.00;67.79;100156.03;125974;1099;104239;-77
2021/06/26 02:39:14;;;;;;;23.53;4.47;;;;;;;22.05;67.94;100165.74;125448;1099;104217;-77
2021/06/26 02:41:45;;;;;;;15.10;4.80;;;;;;;22.13;67.96;100162.94;126307;1099;104137;-77
2021/06/26 02:44:15;;;;;;;14.70;5.00;;;;;;;22.16;68.14;100152.20;126339;1099;104704;-77
2021/06/26 02:46:46;;;;;;;15.43;4.73;;;;;;;22.21;67.50;100150.32;126285;1099;104226;-77
2021/06/26 02:49:17;;;;;;;12.87;4.87;;;;;;;22.23;67.44;100163.66;126343;1099;104236;-76
2021/06/26 02:51:48;;;;;;;18.10;5.07;;;;;;;22.22;67.43;100173.47;126321;1099;104152;-76
2021/06/26 02:54:19;;;;;;;15.93;4.70;;;;;;;22.22;67.82;100167.22;126335;1099;104259;-77
2021/06/26 02:56:50;;;;;;;15.73;4.47;;;;;;;22.23;67.53;100163.66;126271;1099;104143;-76
2021/06/26 02:59:21;;;;;;;16.50;4.90;;;;;;;22.23;68.02;100169.00;126339;1099;104140;-77
2021/06/26 03:01:51;;;;;;;15.30;4.63;;;;;;;22.22;67.51;100168.12;126328;1099;104354;-76
2021/06/26 03:04:22;;;;;;;19.17;4.57;;;;;;;22.24;67.43;100168.97;126198;1099;104136;-76
2021/06/26 03:06:53;;;;;;;17.70;4.93;;;;;;;22.29;68.11;100160.00;126267;1098;104195;-77
2021/06/26 03:09:23;;;;;;;13.93;4.50;;;;;;;22.31;67.89;100168.90;126319;1099;104169;-76
2021/06/26 03:11:54;;;;;;;18.33;5.00;;;;;;;22.33;67.56;100169.73;126325;1099;104156;-75
2021/06/26 03:14:25;;;;;;;19.37;5.53;;;;;;;22.35;67.05;100171.48;126341;1099;104201;-77
2021/06/26 03:16:56;;;;;;;17.93;5.20;;;;;;;22.37;67.16;100177.67;126309;1099;104389;-77
2021/06/26 03:19:27;;;;;;;20.40;5.03;;;;;;;22.40;68.07;100171.41;126310;1099;104223;-77
2021/06/26 03:21:57;;;;;;;17.43;4.50;;;;;;;22.41;67.32;100170.50;126324;1099;104608;-77
2021/06/26 03:24:29;;;;;;;14.73;5.20;;;;;;;22.42;67.40;100172.25;126375;1099;104214;-77
2021/06/26 03:26:59;;;;;;;17.87;5.97;;;;;;;22.47;67.79;100173.07;126331;1099;104149;-77
2021/06/26 03:29:30;;;;;;;21.47;5.20;;;;;;;22.50;67.47;100170.34;126351;1099;104169;-77
2021/06/26 03:32:00;;;;;;;18.77;5.73;;;;;;;22.54;67.79;100158.66;126325;1099;104147;-77
2021/06/26 03:34:31;;;;;;;18.13;5.67;;;;;;;22.61;67.42;100165.66;126358;1099;104287;-78
2021/06/26 03:37:02;;;;;;;18.97;5.83;;;;;;;22.67;67.83;100156.62;126314;1099;104309;-77
2021/06/26 03:39:32;;;;;;;15.57;5.30;;;;;;;22.70;68.05;100166.38;126336;1099;104271;-76
2021/06/26 03:42:03;;;;;;;14.67;5.67;;;;;;;22.71;67.32;100177.05;126360;1099;104226;-77
2021/06/26 03:44:34;;;;;;;18.73;5.50;;;;;;;22.71;67.55;100173.50;126338;1099;104240;-77
2021/06/26 03:47:05;;;;;;;21.97;5.47;;;;;;;22.71;67.54;100187.75;126353;1099;104198;-77
2021/06/26 03:49:40;;;;;;;13.63;4.97;;;;;;;22.74;67.60;100176.99;126231;1099;110179;-77
2021/06/26 03:52:39;;;;;;;12.40;5.47;;;;;;;22.77;67.83;100176.94;126352;1099;104261;-76
2021/06/26 03:55:11;;;;;;;14.93;5.60;;;;;;;22.82;67.67;100174.17;126363;1099;104162;-78
2021/06/26 03:57:42;;;;;;;17.80;5.60;;;;;;;22.87;67.70;100171.41;126249;1099;104149;-77
2021/06/26 04:00:14;;;;;;;20.00;6.00;;;;;;;22.93;67.46;100176.63;126356;1099;104127;-76
2021/06/26 04:02:44;;;;;;;22.53;6.10;;;;;;;23.02;67.77;100181.79;126326;1099;104143;-77
2021/06/26 04:05:15;;;;;;;19.13;5.93;;;;;;;23.14;67.60;100180.70;126344;1099;104141;-76
2021/06/26 04:07:46;;;;;;;22.03;6.57;;;;;;;23.21;67.82;100174.28;126331;1099;104134;-77
2021/06/26 04:10:17;;;;;;;17.83;6.47;;;;;;;23.32;67.66;100185.63;126327;1099;108273;-77
2021/06/26 04:12:48;;;;;;;20.90;6.90;;;;;;;23.37;67.73;100177.50;126363;1099;104156;-77
2021/06/26 04:15:19;;;;;;;19.20;6.90;;;;;;;23.43;67.47;100179.16;126343;1099;104239;-77
2021/06/26 04:17:50;;;;;;;21.07;6.23;;;;;;;23.50;67.40;100172.77;126359;1099;104230;-77
2021/06/26 04:20:23;;;;;;;25.80;7.00;;;;;;;23.55;67.39;100176.21;126365;1099;118614;-76
2021/06/26 04:22:54;;;;;;;22.03;6.83;;;;;;;23.63;67.45;100173.36;126291;1098;104242;-76
2021/06/26 04:25:26;;;;;;;22.67;6.40;;;;;;;23.68;67.48;100168.77;126376;1099;104156;-77
2021/06/26 04:28:04;;;;;;;23.23;7.20;;;;;;;23.74;67.45;100173.11;126321;1099;104230;-77
2021/06/26 04:30:35;;;;;;;27.33;7.90;;;;;;;23.80;67.55;100170.28;126330;1099;104146;-77
2021/06/26 04:33:07;;;;;;;22.73;7.50;;;;;;;23.86;67.49;100171.04;126245;1099;104267;-77
2021/06/26 04:35:38;;;;;;;23.30;8.07;;;;;;;23.89;67.12;100166.52;126292;1099;104335;-78
2021/06/26 04:38:09;;;;;;;25.33;7.40;;;;;;;23.91;67.42;100164.70;126332;1099;104184;-78
2021/06/26 04:40:40;;;;;;;23.97;7.67;;;;;;;23.93;67.54;100162.84;126214;1099;104168;-78
2021/06/26 04:43:11;;;;;;;25.10;7.70;;;;;;;23.98;67.54;100164.51;126341;1099;104152;-77
2021/06/26 04:45:45;;;;;;;25.67;8.00;;;;;;;24.06;67.17;100156.28;126349;1099;104198;-77
2021/06/26 04:48:19;;;;;;;21.70;6.93;;;;;;;24.12;67.45;100150.76;126336;1099;104357;-77
2021/06/26 04:50:50;;;;;;;20.80;7.97;;;;;;;24.18;67.29;100152.37;126293;1098;104217;-77
2021/06/26 04:53:21;;;;;;;23.63;7.53;;;;;;;24.25;67.33;100147.73;126326;1099;104204;-77
2021/06/26 04:55:52;;;;;;;24.03;8.00;;;;;;;24.32;67.07;100144.84;126353;1099;104230;-77
2021/06/26 04:58:25;;;;;;;26.53;8.10;;;;;;;24.39;67.17;100148.27;126352;1099;104253;-76
2021/06/26 05:00:57;;;;;;;24.20;7.97;;;;;;;24.46;67.16;100146.29;126266;1099;104243;-76
2021/06/26 05:03:28;;;;;;;23.60;7.37;;;;;;;24.47;67.40;100148.06;126363;1099;104605;-77
2021/06/26 05:06:00;;;;;;;23.37;7.67;;;;;;;24.50;67.27;100139.93;126345;1099;104245;-76
2021/06/26 05:08:31;;;;;;;26.67;8.40;;;;;;;24.56;67.04;100142.45;126364;1099;104152;-78
2021/06/26 05:11:02;;;;;;;23.33;7.57;;;;;;;24.60;67.11;100133.41;126300;1099;105463;-77
2021/06/26 05:13:33;;;;;;;21.17;7.93;;;;;;;24.64;67.09;100132.41;126313;1099;104140;-78
2021/06/26 05:16:04;;;;;;;23.43;7.90;;;;;;;24.70;66.84;100129.55;126354;1099;104605;-77
2021/06/26 05:18:35;;;;;;;23.53;7.23;;;;;;;24.78;66.70;100126.64;126325;1099;104143;-77
2021/06/26 05:21:06;;;;;;;22.50;7.57;;;;;;;24.83;66.50;100127.38;126330;1099;104139;-78
2021/06/26 05:23:37;;;;;;;25.63;7.97;;;;;;;24.87;66.37;100114.75;126359;1099;104140;-76
2021/06/26 05:26:09;;;;;;;21.70;8.57;;;;;;;24.90;66.35;100128.08;126311;1099;104348;-77
2021/06/26 05:28:40;;;;;;;22.17;7.23;;;;;;;24.93;66.39;100110.09;126350;1099;104137;-77
2021/06/26 05:31:12;;;;;;;19.97;6.63;;;;;;;24.99;66.51;100106.33;126295;1099;104189;-76
2021/06/26 05:33:44;;;;;;;22.40;7.37;;;;;;;25.05;66.52;100099.91;126376;1099;104242;-77
2021/06/26 05:36:15;;;;;;;20.93;6.87;;;;;;;25.12;66.04;100105.05;126366;1099;104261;-78
2021/06/26 05:38:46;;;;;;;24.10;7.30;;;;;;;25.19;66.26;100094.12;126311;1098;104220;-76
2021/06/26 05:41:17;;;;;;;24.20;8.17;;;;;;;25.27;65.86;100101.02;126326;1099;104300;-76
2021/06/26 05:43:47;;;;;;;18.57;7.10;;;;;;;25.34;66.14;100088.30;126339;1099;104145;-76
2021/06/26 05:46:18;;;;;;;22.53;7.47;;;;;;;25.43;66.20;100079.95;126353;1099;104211;-75
2021/06/26 05:48:49;;;;;;;20.10;7.00;;;;;;;25.54;65.56;100076.91;126327;1098;104153;-77
2021/06/26 05:51:20;;;;;;;26.67;7.80;;;;;;;25.60;65.62;100079.40;126247;1099;104197;-77
2021/06/26 05:53:51;;;;;;;20.30;7.40;;;;;;;25.67;65.28;100080.06;126345;1097;104137;-77
2021/06/26 05:56:24;;;;;;;20.37;7.60;;;;;;;25.71;65.54;100073.67;126349;1099;104201;-77
2021/06/26 05:58:56;;;;;;;20.67;7.17;;;;;;;25.76;65.39;100077.06;126382;1099;104669;-77
2021/06/26 06:01:26;;;;;;;23.27;7.80;;;;;;;25.81;65.72;100075.09;126303;1099;104144;-76
2021/06/26 06:04:01;;;;;;;23.00;7.90;;;;;;;25.86;65.21;100076.75;126323;1099;104179;-77
2021/06/26 06:06:33;;;;;;;21.77;8.07;;;;;;;25.88;65.52;100070.38;126353;1099;104573;-76
2021/06/26 06:09:09;;;;;;;26.80;7.73;;;;;;;25.92;64.98;100068.48;126266;1099;104264;-76
2021/06/26 06:11:41;;;;;;;22.45;7.40;;;;;;;25.96;65.45;100070.11;126309;1099;104238;-76
2021/06/26 06:14:12;;;;;;;19.53;7.53;;;;;;;26.01;65.37;100055.62;126362;1099;104576;-77
2021/06/26 06:16:43;;;;;;;22.43;7.07;;;;;;;26.08;65.09;100063.47;126312;1099;104159;-77
2021/06/26 06:19:14;;;;;;;22.03;7.67;;;;;;;26.10;65.16;100051.74;126320;1099;104146;-76
2021/06/26 06:21:44;;;;;;;22.70;6.77;;;;;;;26.18;64.82;100051.47;126297;1099;104210;-79
2021/06/26 06:24:17;;;;;;;19.17;6.73;;;;;;;26.28;64.91;100043.94;126338;1099;104146;-78
2021/06/26 06:26:48;;;;;;;27.87;8.00;;;;;;;26.36;64.38;100040.02;126339;1098;104140;-77
2021/06/26 06:29:18;;;;;;;21.13;7.30;;;;;;;26.44;64.47;100033.48;126322;1099;104185;-77
2021/06/26 06:31:49;;;;;;;23.27;7.60;;;;;;;26.50;64.16;100031.43;126328;1098;104139;-77
2021/06/26 06:34:19;;;;;;;19.03;6.67;;;;;;;26.57;64.42;100021.34;126350;1099;104322;-77
2021/06/26 06:36:50;;;;;;;20.70;6.77;;;;;;;26.66;64.20;100033.58;126348;1099;104153;-77
2021/06/26 06:39:21;;;;;;;18.20;6.50;;;;;;;26.74;64.41;100023.41;126361;1099;104168;-77
2021/06/26 06:41:51;;;;;;;21.15;7.40;;;;;;;26.84;64.36;100023.92;126285;1099;104679;-77
2021/06/26 06:44:23;;;;;;;21.47;6.90;;;;;;;26.96;63.88;100027.92;126366;1099;105214;-77
2021/06/26 06:46:54;;;;;;;19.37;6.43;;;;;;;27.06;63.71;100032.02;126337;1099;104659;-77
2021/06/26 06:49:25;;;;;;;26.00;6.70;;;;;;;27.14;63.29;100031.71;126364;1098;104174;-77
2021/06/26 06:51:55;;;;;;;24.70;7.00;;;;;;;27.23;63.47;100034.89;126294;1099;104221;-76
2021/06/26 06:54:26;;;;;;;16.33;6.37;;;;;;;27.34;63.42;100031.80;126340;1099;104142;-77
2021/06/26 06:56:57;;;;;;;19.00;6.40;;;;;;;27.45;63.31;100025.97;126341;1099;105188;-76
2021/06/26 06:59:27;;;;;;;16.10;6.10;;;;;;;27.57;63.04;100028.15;126338;1099;104143;-77
2021/06/26 07:01:59;;;;;;;28.00;6.20;;;;;;;27.68;62.59;100026.83;126300;1099;104243;-76
2021/06/26 07:04:29;;;;;;;19.47;6.50;;;;;;;27.78;62.67;100020.08;126355;1099;104146;-76
2021/06/26 07:07:01;;;;;;;18.40;6.20;;;;;;;27.88;62.21;100017.88;126338;1099;104143;-77
2021/06/26 07:09:32;;;;;;;15.80;5.90;;;;;;;27.97;61.87;100021.07;126363;1099;104192;-76
2021/06/26 07:12:03;;;;;;;26.10;6.93;;;;;;;28.09;62.20;100026.86;126307;1099;104205;-77
2021/06/26 07:14:34;;;;;;;23.03;6.90;;;;;;;28.24;61.45;100028.87;126368;1099;104190;-77
2021/06/26 07:17:05;;;;;;;17.63;6.20;;;;;;;28.36;61.30;100024.75;126324;1099;104271;-76
2021/06/26 07:19:35;;;;;;;19.93;6.27;;;;;;;28.50;61.28;100024.09;126285;1099;104197;-77
2021/06/26 07:22:06;;;;;;;22.50;6.40;;;;;;;28.64;60.93;100018.98;125385;1099;104242;-76
2021/06/26 07:24:37;;;;;;;15.97;5.97;;;;;;;28.78;60.87;100009.33;126358;1099;104137;-77
2021/06/26 07:27:08;;;;;;;21.37;6.70;;;;;;;28.92;60.48;100012.27;126362;1099;104146;-76
2021/06/26 07:29:39;;;;;;;21.77;6.13;;;;;;;29.10;60.27;100012.31;126346;1099;104172;-77
2021/06/26 07:32:10;;;;;;;15.77;5.53;;;;;;;29.24;59.16;100012.53;126267;1098;104663;-76
2021/06/26 07:34:42;;;;;;;21.43;6.37;;;;;;;29.40;59.31;100010.83;126351;1099;104236;-76
2021/06/26 07:37:13;;;;;;;16.53;5.80;;;;;;;29.56;58.91;100013.63;126344;1099;104137;-76
2021/06/26 07:39:43;;;;;;;17.47;6.07;;;;;;;29.76;58.98;100015.30;126386;1099;104163;-77
2021/06/26 07:42:14;;;;;;;20.67;5.90;;;;;;;29.98;58.46;100016.02;126295;1099;104255;-76
2021/06/26 07:44:45;;;;;;;18.97;5.67;;;;;;;30.14;58.08;100008.86;126322;1099;104714;-77
2021/06/26 07:47:16;;;;;;;20.53;5.33;;;;;;;30.31;57.53;100021.48;126344;1099;104280;-77
2021/06/26 07:49:46;;;;;;;21.00;6.30;;;;;;;30.44;57.53;100017.16;126302;1099;104227;-76
2021/06/26 07:52:17;;;;;;;20.10;6.00;;;;;;;30.68;56.94;100018.61;126267;1099;104248;-76
2021/06/26 07:54:47;;;;;;;21.60;6.77;;;;;;;30.87;56.78;100023.86;126329;1099;117796;-76
2021/06/26 07:57:18;;;;;;;17.47;5.43;;;;;;;31.00;56.37;100024.95;126341;1098;104240;-77
2021/06/26 07:59:49;;;;;;;15.87;5.60;;;;;;;31.14;56.28;100030.45;126265;1098;104168;-76
2021/06/26 08:02:19;;;;;;;17.23;5.13;;;;;;;31.19;55.72;100036.47;126326;1099;104945;-76
2021/06/26 08:04:50;;;;;;;20.70;5.77;;;;;;;31.38;55.44;100039.96;126304;1099;104175;-76
2021/06/26 08:07:21;;;;;;;14.53;5.50;;;;;;;31.50;55.19;100039.24;126369;1099;104245;-77
2021/06/26 08:09:51;;;;;;;22.33;6.20;;;;;;;31.64;55.02;100047.45;125333;1099;104226;-77
2021/06/26 08:12:23;;;;;;;14.77;5.80;;;;;;;31.76;54.70;100048.58;126359;1099;104251;-77
2021/06/26 08:14:54;;;;;;;20.27;5.23;;;;;;;31.87;54.47;100056.94;126327;1099;104162;-77
2021/06/26 08:17:24;;;;;;;19.47;5.63;;;;;;;31.97;54.12;100048.24;126312;1099;104185;-76
2021/06/26 08:19:55;;;;;;;15.97;5.43;;;;;;;32.09;53.81;100042.09;126354;1099;104673;-77
2021/06/26 08:22:26;;;;;;;15.57;5.30;;;;;;;32.29;53.67;100048.12;126310;1099;104233;-77
2021/06/26 08:24:56;;;;;;;15.27;5.40;;;;;;;32.48;53.58;100047.86;126289;1098;104268;-77
2021/06/26 08:27:30;;;;;;;17.43;5.80;;;;;;;32.60;52.80;100047.09;126359;1099;104139;-77
2021/06/26 08:30:01;;;;;;;17.93;4.83;;;;;;;32.68;52.83;100044.78;126360;1099;104701;-76
2021/06/26 08:32:32;;;;;;;18.27;5.63;;;;;;;32.81;52.70;100025.84;126329;1099;104140;-76
2021/06/26 08:35:03;;;;;;;18.03;5.73;;;;;;;32.88;52.03;100023.59;126267;1099;104165;-77
2021/06/26 08:37:34;;;;;;;17.73;5.70;;;;;;;32.92;51.77;100012.42;126332;1098;104150;-78
2021/06/26 08:40:07;;;;;;;16.10;5.20;;;;;;;33.01;51.26;100020.97;126304;1099;104155;-78
2021/06/26 08:42:38;;;;;;;16.87;5.05;;;;;;;33.07;51.02;100017.84;126287;1099;104220;-77
2021/06/26 08:45:11;;;;;;;17.57;5.73;;;;;;;33.08;50.78;100016.85;126285;1099;104192;-76
2021/06/26 08:47:43;;;;;;;18.77;5.70;;;;;;;33.06;50.71;100014.23;126261;1099;104275;-77
2021/06/26 08:50:14;;;;;;;16.40;5.13;;;;;;;33.15;50.55;100020.92;126325;1099;104149;-75
2021/06/26 08:52:46;;;;;;;16.70;5.20;;;;;;;33.16;50.29;100014.52;126326;1099;104256;-76
2021/06/26 08:55:17;;;;;;;18.83;5.47;;;;;;;33.07;49.88;100009.69;126305;1099;104255;-77
2021/06/26 08:57:49;;;;;;;15.73;5.07;;;;;;;33.08;49.83;99997.83;126353;1099;104166;-77
2021/06/26 09:00:24;;;;;;;15.10;5.40;;;;;;;33.08;49.81;100001.44;126332;1099;104153;-76
2021/06/26 09:03:07;;;;;;;23.55;6.50;;;;;;;33.09;49.46;100003.16;126285;1099;104144;-75
2021/06/26 09:05:39;;;;;;;19.33;5.87;;;;;;;33.10;49.40;99995.90;126313;1099;104152;-76
2021/06/26 09:08:15;;;;;;;21.27;6.70;;;;;;;33.09;49.23;99994.14;126364;1099;104246;-77
2021/06/26 09:10:47;;;;;;;20.67;5.80;;;;;;;33.18;49.33;99988.13;126332;1099;104147;-78
2021/06/26 09:13:23;;;;;;;17.62;5.80;;;;;;;33.20;49.02;99993.47;126310;1098;104149;-77
2021/06/26 09:16:06;;;;;;;18.70;5.70;;;;;;;33.19;48.80;99983.55;126309;1099;104682;-77
2021/06/26 09:18:47;;;;;;;19.10;5.50;;;;;;;33.21;48.86;99990.64;126332;1099;104278;-76
2021/06/26 09:21:25;;;;;;;20.30;6.10;;;;;;;33.25;48.73;99992.16;126338;1099;104175;-77
2021/06/26 09:24:08;;;;;;;18.35;5.15;;;;;;;33.24;48.55;99986.83;126343;1099;104165;-78
2021/06/26 09:26:38;;;;;;;;;;;;;;;33.21;48.00;99982.48;126310;1099;108296;-77
2021/06/26 09:29:13;;;;;;;17.53;5.87;;;;;;;33.24;47.74;99986.83;126326;1099;104236;-76
2021/06/26 09:31:55;;;;;;;19.40;5.50;;;;;;;33.17;47.84;99991.78;126368;1099;104140;-76
2021/06/26 09:34:39;;;;;;;18.43;5.70;;;;;;;33.18;47.96;99989.95;126283;1099;104145;-77
2021/06/26 09:37:11;;;;;;;15.00;5.40;;;;;;;33.16;47.74;99987.34;126402;1099;120064;-77
2021/06/26 09:39:45;;;;;;;17.23;5.13;;;;;;;33.11;47.50;99993.08;126308;1098;104361;-77
2021/06/26 09:42:22;;;;;;;16.70;5.43;;;;;;;33.05;47.20;99979.90;126354;1099;104312;-77
2021/06/26 09:44:56;;;;;;;18.73;6.20;;;;;;;33.07;47.35;99985.23;126325;1099;104159;-76
2021/06/26 09:47:35;;;;;;;16.73;5.30;;;;;;;33.11;47.47;99986.75;126307;1099;104235;-77
2021/06/26 09:50:16;;;;;;;21.20;5.47;;;;;;;33.15;47.39;99980.15;126344;1099;104153;-77
2021/06/26 09:52:49;;;;;;;16.67;5.50;;;;;;;33.15;47.09;99985.58;126314;1099;104309;-76
2021/06/26 09:55:27;;;;;;;13.63;5.37;;;;;;;33.11;47.08;99986.75;126324;1099;104293;-77
2021/06/26 09:58:00;;;;;;;15.37;5.37;;;;;;;33.16;46.96;99992.77;126329;1099;109461;-77
2021/06/26 10:00:31;;;;;;;19.12;5.70;;;;;;;33.21;46.85;100000.63;126278;1098;104191;-77
2021/06/26 10:03:03;;;;;;;22.47;5.73;;;;;;;33.21;46.57;99998.80;126336;1099;104194;-77
2021/06/26 10:05:34;;;;;;;16.63;5.60;;;;;;;33.21;46.86;99989.75;126321;1099;104313;-76
2021/06/26 10:08:07;;;;;;;22.33;5.60;;;;;;;33.30;46.76;100013.60;126235;1099;104152;-76
2021/06/26 10:10:38;;;;;;;15.98;5.30;;;;;;;33.30;46.66;100006.34;126356;1099;104217;-77
2021/06/26 10:13:14;;;;;;;13.90;5.30;;;;;;;33.35;46.57;100006.03;126393;1099;104143;-78
2021/06/26 10:15:44;;;;;;;19.03;5.30;;;;;;;33.28;46.48;100005.55;126237;1099;104171;-75
2021/06/26 10:18:16;;;;;;;18.83;5.77;;;;;;;33.15;46.22;100010.05;126260;1099;108303;-76
2021/06/26 10:20:48;;;;;;;16.83;5.47;;;;;;;33.01;46.47;100010.95;126337;1099;104236;-77
2021/06/26 10:23:19;;;;;;;18.52;5.30;;;;;;;32.90;46.35;100013.52;126295;1099;104140;-77
2021/06/26 10:25:50;;;;;;;15.00;5.07;;;;;;;32.74;46.33;100022.66;126341;1099;104159;-77
2021/06/26 10:28:21;;;;;;;17.87;5.77;;;;;;;32.64;46.19;100024.20;126209;1099;104240;-77
2021/06/26 10:31:01;;;;;;;17.07;5.47;;;;;;;32.57;46.16;100026.42;126298;1099;104144;-77
2021/06/26 10:33:33;;;;;;;18.17;5.40;;;;;;;32.48;46.15;100026.14;126380;1099;104640;-78
2021/06/26 10:36:04;;;;;;;16.00;5.20;;;;;;;32.39;46.11;100028.45;126313;1099;104136;-77
2021/06/26 10:38:43;;;;;;;13.33;5.27;;;;;;;32.38;46.06;100033.97;126330;1098;104174;-77
2021/06/26 10:41:24;;;;;;;21.07;5.90;;;;;;;32.45;46.20;100027.20;126352;1099;104252;-77
2021/06/26 10:44:00;;;;;;;14.33;5.00;;;;;;;32.58;46.22;100028.17;126340;1099;104287;-77
2021/06/26 10:46:31;;;;;;;12.63;5.17;;;;;;;32.73;46.26;100031.77;126260;1099;104278;-78
2021/06/26 10:49:05;;;;;;;18.67;5.57;;;;;;;32.82;46.34;100018.55;126335;1099;104769;-77
2021/06/26 10:51:38;;;;;;;17.40;5.30;;;;;;;32.92;46.33;100027.86;126342;1099;104243;-75
2021/06/26 10:54:14;;;;;;;14.50;5.70;;;;;;;33.03;46.37;100024.44;126345;1099;104300;-76
2021/06/26 10:56:47;;;;;;;15.93;5.17;;;;;;;33.02;46.32;100030.84;126275;1099;104242;-77
2021/06/26 10:59:20;;;;;;;21.50;5.50;;;;;;;33.00;46.35;100027.36;126320;1099;104217;-77
2021/06/26 11:01:59;;;;;;;;;;;;;;;32.96;46.05;100035.72;126349;1099;104140;-76
2021/06/26 11:04:30;;;;;;;16.97;5.60;;;;;;;32.86;46.04;100022.83;126359;1099;104149;-77
2021/06/26 11:07:11;;;;;;;17.40;5.60;;;;;;;32.73;46.21;100031.77;126301;1099;104222;-77
2021/06/26 11:09:43;;;;;;;13.67;4.80;;;;;;;32.67;45.83;100037.59;126278;1099;106990;-77
2021/06/26 11:12:15;;;;;;;;;;;;;;;32.59;46.08;100032.61;126374;1099;104140;-78
2021/06/26 11:14:56;;;;;;;16.50;5.40;;;;;;;32.54;45.95;100028.47;126343;1099;104214;-77
2021/06/26 11:17:38;;;;;;;16.53;5.53;;;;;;;32.48;45.92;100032.44;126318;1099;104136;-77
2021/06/26 11:20:13;;;;;;;14.90;5.27;;;;;;;32.37;45.86;100030.39;126346;1099;117920;-77
2021/06/26 11:22:52;;;;;;;17.63;5.17;;;;;;;32.29;45.35;100031.83;126294;1099;104134;-76
2021/06/26 11:25:26;;;;;;;14.23;4.80;;;;;;;32.30;45.14;100025.44;126370;1099;104150;-76
2021/06/26 11:28:05;;;;;;;15.90;4.90;;;;;;;32.35;45.50;100021.48;126305;1099;104141;-77